Time;durP1;ratioP1;P1;durP2;ratioP2;P2;SDS_P1;SDS_P2;PMS_P1;PMS_P2;Temp;Humidity;BMP_temperature;BMP_pressure;BME280_temperature;BME280_humidity;BME280_pressure;Samples;Min_cycle;Max_cycle;Signal;HPM_P1;HPM_P2
2022/12/19 00:02:09;;;;;;;32.85;17.95;;;;;;;;;;5110727;28;20050;-79
2022/12/19 00:04:35;;;;;;;33.88;18.85;;;;;;;;;;5077154;28;20055;-79
2022/12/19 00:07:01;;;;;;;32.03;19.35;;;;;;;;;;5110930;28;20051;-78
2022/12/19 00:09:27;;;;;;;31.85;18.40;;;;;;;;;;5110764;28;20055;-79
2022/12/19 00:11:53;;;;;;;34.80;17.10;;;;;;;;;;5110904;28;20044;-80
2022/12/19 00:14:20;;;;;;;32.92;17.23;;;;;;;;;;5110787;28;20039;-80
2022/12/19 00:16:46;;;;;;;32.65;17.60;;;;;;;;;;5110486;28;20416;-79
2022/12/19 00:19:12;;;;;;;31.50;17.58;;;;;;;;;;5093929;28;20498;-79
2022/12/19 00:21:38;;;;;;;24.77;14.00;;;;;;;;;;5110653;28;20096;-80
2022/12/19 00:24:05;;;;;;;29.48;18.10;;;;;;;;;;5095707;28;20050;-80
2022/12/19 00:26:32;;;;;;;33.60;18.73;;;;;;;;;;5097329;28;20044;-78
2022/12/19 00:29:09;;;;;;;28.30;16.65;;;;;;;;;;5097224;28;20047;-80
2022/12/19 00:31:35;;;;;;;28.48;17.38;;;;;;;;;;5113963;28;20148;-80
2022/12/19 00:34:02;;;;;;;28.25;17.08;;;;;;;;;;5114246;28;20545;-80
2022/12/19 00:36:30;;;;;;;31.27;18.90;;;0.90;99.90;;;;;;5114282;28;20043;-79
2022/12/19 00:38:58;;;;;;;36.88;19.75;;;1.00;99.90;;;;;;5114342;28;20058;-79
2022/12/19 00:41:25;;;;;;;32.67;17.88;;;;;;;;;;5114215;28;20131;-81
2022/12/19 00:44:02;;;;;;;31.25;17.55;;;;;;;;;;5113957;28;20075;-81
2022/12/19 00:46:29;;;;;;;33.78;17.05;;;;;;;;;;5113706;28;20105;-80
2022/12/19 00:48:55;;;;;;;32.15;17.15;;;;;;;;;;5096773;28;20071;-81
2022/12/19 00:51:23;;;;;;;37.08;18.70;;;;;;;;;;5096761;28;20039;-80
2022/12/19 00:53:49;;;;;;;34.28;18.00;;;;;;;;;;5096743;28;20039;-81
2022/12/19 00:56:20;;;;;;;36.88;18.20;;;;;;;;;;5113652;28;20048;-81
2022/12/19 00:58:46;;;;;;;35.67;19.55;;;;;;;;;;5113708;28;20043;-81
2022/12/19 01:01:14;;;;;;;37.45;18.73;;;;;;;;;;5113812;28;20048;-81
2022/12/19 01:03:40;;;;;;;23.55;13.27;;;;;;;;;;5096826;28;20435;-81
2022/12/19 01:06:07;;;;;;;35.10;18.02;;;;;;;;;;5096501;28;20055;-81
2022/12/19 01:08:33;;;;;;;34.05;17.80;;;;;;;;;;5113674;28;20043;-79
2022/12/19 01:10:59;;;;;;;35.92;18.48;;;;;;;;;;5113717;28;20040;-80
2022/12/19 01:13:26;;;;;;;37.63;18.52;;;;;;;;;;5096745;28;20047;-81
2022/12/19 01:15:52;;;;;;;36.00;18.83;;;;;;;;;;5113480;28;20441;-80
2022/12/19 01:18:18;;;;;;;31.05;18.00;;;;;;;;;;5096298;28;20494;-81
2022/12/19 01:20:48;;;;;;;31.33;15.55;;;;;;;;;;5096697;28;20075;-81
2022/12/19 01:23:15;;;;;;;28.58;16.80;;;;;;;;;;5113310;28;20039;-81
2022/12/19 01:25:41;;;;;;;32.60;17.00;;;;;;;;;;5113013;28;20054;-80
2022/12/19 01:28:07;;;;;;;38.22;18.23;;;;;;;;;;5112984;28;20507;-81
2022/12/19 01:30:34;;;;;;;33.42;18.17;;;;;;;;;;5112580;28;20059;-78
2022/12/19 01:33:00;;;;;;;33.70;19.33;;;;;;;;;;5112704;28;20036;-84
2022/12/19 01:35:27;;;;;;;31.48;16.85;;;;;;;;;;5111014;28;20035;-80
2022/12/19 01:37:53;;;;;;;29.92;15.23;;;;;;;;;;5111774;28;20036;-82
2022/12/19 01:40:20;;;;;;;33.95;17.70;;;;;;;;;;5112450;28;20044;-81
2022/12/19 01:42:46;;;;;;;29.63;17.23;;;;;;;;;;5112750;28;20043;-81
2022/12/19 01:45:15;;;;;;;31.52;16.85;;;;;;;;;;5112455;28;20079;-81
2022/12/19 01:47:50;;;;;;;31.88;18.00;;;;;;;;;;5112680;28;20047;-80
2022/12/19 01:50:23;;;;;;;34.88;18.02;;;;;;;;;;5112821;28;20047;-83
2022/12/19 01:52:50;;;;;;;29.57;17.63;;;;;;;;;;5112528;28;20127;-81
2022/12/19 01:55:17;;;;;;;28.55;16.23;;;;;;;;;;5112537;28;20076;-83
2022/12/19 01:57:43;;;;;;;36.10;19.63;;;;;;;;;;5112166;28;20052;-82
2022/12/19 02:00:09;;;;;;;30.90;18.60;;;;;;;;;;5095650;28;20147;-81
2022/12/19 02:02:38;;;;;;;31.98;17.15;;;;;;;;;;5112442;28;20492;-80
2022/12/19 02:05:05;;;;;;;31.60;18.55;;;;;;;;;;5095138;28;20154;-82
2022/12/19 02:07:31;;;;;;;36.42;19.45;;;;;;;;;;5095900;28;20104;-83
2022/12/19 02:09:58;;;;;;;32.85;17.92;;;;;;;;;;5112605;28;20040;-84
2022/12/19 02:12:25;;;;;;;34.60;18.45;;;;;;;;;;5095177;28;20131;-82
2022/12/19 02:14:51;;;;;;;38.88;19.30;;;;;;;;;;5112127;28;20499;-83
2022/12/19 02:17:31;;;;;;;34.97;20.00;;;;;;;;;;5112247;28;20047;-83
2022/12/19 02:20:19;;;;;;;34.05;20.00;;;1.80;99.90;;;;;;5095499;28;20126;-82
2022/12/19 02:23:00;;;;;;;42.00;19.70;;;;;;;;;;5112065;28;20043;-80
2022/12/19 02:25:32;;;;;;;36.25;20.02;;;;;;;;;;5095264;28;20044;-80
2022/12/19 02:28:36;;;;;;;38.17;19.90;;;1.50;99.90;;;;;;5096223;28;20043;-82
2022/12/19 02:31:07;;;;;;;36.42;17.30;;;;;;;;;;5095232;28;20059;-81
2022/12/19 02:33:40;;;;;;;40.10;19.58;;;;;;;;;;5112072;28;20126;-83
2022/12/19 02:36:32;;;;;;;40.47;21.60;;;;;;;;;;5111990;28;20515;-81
2022/12/19 02:39:00;;;;;;;34.03;18.67;;;;;;;;;;5109948;28;20054;-85
2022/12/19 02:41:41;;;;;;;36.38;19.05;;;;;;;;;;5095038;28;20421;-85
2022/12/19 02:44:09;;;;;;;38.85;20.02;;;;;;;;;;5112117;28;20122;-85
2022/12/19 02:46:35;;;;;;;44.95;20.20;;;;;;;;;;5111209;28;20051;-85
2022/12/19 02:49:02;;;;;;;40.50;18.75;;;;;;;;;;5094713;28;20039;-84
2022/12/19 02:51:28;;;;;;;37.35;19.05;;;;;;;;;;5111595;28;20479;-79
2022/12/19 02:53:54;;;;;;;30.25;18.70;;;;;;;;;;5111470;28;20079;-85
2022/12/19 02:56:20;;;;;;;42.97;21.23;;;;;;;;;;5094505;28;20081;-83
2022/12/19 02:58:52;;;;;;;32.40;17.73;;;;;;;;;;5094781;28;20434;-82
2022/12/19 03:01:27;;;;;;;43.55;20.58;;;;;;;;;;5111567;28;20093;-82
2022/12/19 03:03:53;;;;;;;41.50;21.20;;;;;;;;;;5111721;28;20046;-84
2022/12/19 03:06:19;;;;;;;34.70;20.05;;;;;;;;;;5111307;28;20139;-84
2022/12/19 03:08:48;;;;;;;38.55;21.08;;;;;;;;;;5111593;28;20097;-84
2022/12/19 03:11:15;;;;;;;41.33;21.40;;;;;;;;;;5111234;28;20069;-82
2022/12/19 03:13:44;;;;;;;37.95;20.85;;;;;;;;;;5111435;28;20491;-80
2022/12/19 03:16:10;;;;;;;43.55;22.83;;;;;;;;;;5094018;28;20442;-84
2022/12/19 03:18:37;;;;;;;33.88;18.52;;;;;;;;;;5094340;28;20058;-82
2022/12/19 03:21:15;;;;;;;39.17;21.15;;;;;;;;;;5094063;28;20050;-82
2022/12/19 03:23:41;;;;;;;36.92;18.98;;;;;;;;;;5094399;28;20055;-86
2022/12/19 03:26:14;;;;;;;34.45;19.08;;;;;;;;;;5077681;28;20130;-83
2022/12/19 03:28:52;;;;;;;32.22;19.23;;;;;;;;;;5111472;28;20039;-83
2022/12/19 03:31:20;;;;;;;35.20;19.52;;;;;;;;;;5111368;28;20060;-81
2022/12/19 03:33:47;;;;;;;32.50;18.33;;;;;;;;;;5111131;28;20036;-88
2022/12/19 03:36:17;;;;;;;35.95;19.45;;;;;;;;;;5094765;28;20050;-90
2022/12/19 03:38:45;;;;;;;29.33;16.88;;;;;;;;;;5094399;28;20043;-89
2022/12/19 03:41:12;;;;;;;35.28;18.55;;;;;;;;;;5111368;28;20054;-81
2022/12/19 03:43:39;;;;;;;43.00;23.45;;;;;;;;;;5111259;28;20044;-82
2022/12/19 03:46:09;;;;;;;38.05;21.45;;;;;;;;;;5094003;28;20139;-82
2022/12/19 03:48:39;;;;;;;38.50;22.85;;;;;;;;;;5094440;28;20480;-83
2022/12/19 03:51:11;;;;;;;37.17;19.50;;;;;;;;;;5094234;28;20077;-88
2022/12/19 03:54:08;;;;;;;44.35;22.88;;;2.00;99.90;;;;;;5094430;28;20070;-83
2022/12/19 03:56:39;;;;;;;41.17;21.58;;;;;;;;;;5111321;28;20135;-85
2022/12/19 03:59:30;;;;;;;36.22;21.15;;;2.30;99.90;;;;;;5096898;28;20134;-82
2022/12/19 04:01:58;;;;;;;47.55;24.95;;;;;;;;;;5097870;28;20516;-81
2022/12/19 04:04:25;;;;;;;37.42;21.60;;;;;;;;;;5097984;28;20044;-85
2022/12/19 04:06:51;;;;;;;41.05;22.35;;;;;;;;;;5114656;28;20052;-84
2022/12/19 04:09:19;;;;;;;39.05;20.33;;;;;;;;;;5114777;28;20046;-84
2022/12/19 04:11:49;;;;;;;40.25;20.73;;;;;;;;;;5115148;28;20108;-85
2022/12/19 04:14:18;;;;;;;33.97;15.77;;;;;;;;;;5098024;28;20162;-84
2022/12/19 04:16:47;;;;;;;39.78;22.42;;;;;;;;;;5097548;28;20054;-83
2022/12/19 04:19:52;;;;;;;40.70;22.52;;;2.50;99.90;;;;;;5097615;28;20042;-83
2022/12/19 04:22:23;;;;;;;29.48;18.23;;;;;;;;;;5108587;28;20104;-83
2022/12/19 04:24:50;;;;;;;42.38;20.65;;;;;;;;;;5114501;28;20050;-84
2022/12/19 04:27:17;;;;;;;41.80;22.38;;;;;;;;;;5097487;28;20043;-84
2022/12/19 04:29:43;;;;;;;41.67;21.75;;;;;;;;;;5080539;28;20094;-82
2022/12/19 04:32:10;;;;;;;39.72;19.50;;;;;;;;;;5097303;28;20047;-85
2022/12/19 04:34:36;;;;;;;43.58;20.27;;;;;;;;;;5114250;28;20036;-83
2022/12/19 04:37:02;;;;;;;39.45;21.83;;;;;;;;;;5097114;28;20411;-82
2022/12/19 04:39:29;;;;;;;38.83;21.70;;;;;;;;;;5114413;28;20104;-84
2022/12/19 04:41:55;;;;;;;37.00;19.20;;;;;;;;;;5114074;28;20052;-84
2022/12/19 04:44:21;;;;;;;35.85;20.23;;;;;;;;;;5114226;28;20047;-84
2022/12/19 04:46:47;;;;;;;41.03;21.48;;;;;;;;;;5096824;28;20058;-85
2022/12/19 04:49:13;;;;;;;40.92;21.25;;;;;;;;;;5080164;28;20044;-86
2022/12/19 04:51:39;;;;;;;41.42;22.60;;;;;;;;;;5113669;28;20533;-83
2022/12/19 04:54:05;;;;;;;40.20;22.40;;;;;;;;;;5096943;28;20039;-85
2022/12/19 04:56:31;;;;;;;40.92;21.85;;;;;;;;;;5096779;28;20048;-85
2022/12/19 04:58:57;;;;;;;38.22;22.05;;;;;;;;;;5096876;28;20583;-85
2022/12/19 05:01:23;;;;;;;34.30;19.20;;;;;;;;;;5096727;28;20054;-81
2022/12/19 05:03:50;;;;;;;39.60;23.38;;;;;;;;;;5079945;28;20075;-83
2022/12/19 05:06:17;;;;;;;37.85;19.45;;;;;;;;;;5096578;28;20048;-83
2022/12/19 05:08:43;;;;;;;39.55;20.13;;;;;;;;;;5113330;28;20035;-83
2022/12/19 05:11:10;;;;;;;43.45;22.77;;;;;;;;;;5113837;28;20082;-84
2022/12/19 05:13:36;;;;;;;40.22;21.77;;;;;;;;;;5096406;28;20071;-82
2022/12/19 05:16:07;;;;;;;41.47;20.92;;;;;;;;;;5113483;28;20051;-83
2022/12/19 05:18:33;;;;;;;36.55;21.35;;;;;;;;;;5113195;28;20050;-84
2022/12/19 05:20:59;;;;;;;38.28;20.38;;;;;;;;;;5113250;28;20052;-86
2022/12/19 05:23:26;;;;;;;44.80;22.33;;;;;;;;;;5096223;28;20124;-86
2022/12/19 05:25:52;;;;;;;39.50;22.00;;;;;;;;;;5096130;28;20047;-86
2022/12/19 05:28:18;;;;;;;34.53;18.60;;;;;;;;;;5113073;28;20096;-86
2022/12/19 05:30:44;;;;;;;33.70;19.92;;;;;;;;;;5095945;28;20060;-83
2022/12/19 05:33:11;;;;;;;38.13;18.80;;;;;;;;;;5112860;28;20612;-83
2022/12/19 05:35:38;;;;;;;42.05;18.98;;;;;;;;;;5113169;28;20035;-82
2022/12/19 05:38:04;;;;;;;31.35;19.25;;;;;;;;;;5079518;28;20469;-85
2022/12/19 05:40:30;;;;;;;43.25;23.15;;;;;;;;;;5095903;28;20108;-83
2022/12/19 05:42:56;;;;;;;32.65;16.45;;;;;;;;;;5096072;28;20131;-84
2022/12/19 05:45:22;;;;;;;32.55;19.00;;;;;;;;;;5112458;28;20036;-85
2022/12/19 05:47:48;;;;;;;37.33;20.88;;;;;;;;;;5096418;28;20050;-91
2022/12/19 05:50:15;;;;;;;31.65;18.65;;;;;;;;;;5096925;28;20126;-88
2022/12/19 05:52:41;;;;;;;32.45;19.65;;;;;;;;;;5096801;28;20043;-89
2022/12/19 05:55:08;;;;;;;25.25;12.95;;;;;;;;;;5096623;28;20122;-91
2022/12/19 05:57:34;;;;;;;32.78;18.25;;;;;;;;;;5096639;28;20105;-89
2022/12/19 06:00:00;;;;;;;30.95;18.45;;;;;;;;;;5113882;28;20514;-89
2022/12/19 06:02:32;;;;;;;33.65;18.88;;;;;;;;;;5079980;28;20487;-90
2022/12/19 06:04:58;;;;;;;28.90;17.70;;;;;;;;;;5112940;28;20047;-91
2022/12/19 06:07:24;;;;;;;26.00;16.23;;;;;;;;;;5113021;28;20130;-89
2022/12/19 06:09:50;;;;;;;32.20;17.95;;;;;;;;;;5095538;28;20039;-89
2022/12/19 06:12:17;;;;;;;22.27;12.30;;;;;;;;;;5113285;28;20111;-91
2022/12/19 06:14:43;;;;;;;26.88;14.73;;;;;;;;;;5112170;28;20039;-84
2022/12/19 06:17:12;;;;;;;25.73;15.63;;;;;;;;;;5113646;28;20071;-90
2022/12/19 06:19:38;;;;;;;26.55;15.85;;;;;;;;;;5112708;28;20172;-88
2022/12/19 06:22:04;;;;;;;27.83;14.52;;;;;;;;;;5112233;28;20541;-89
2022/12/19 06:24:31;;;;;;;22.67;15.18;;;;;;;;;;5095833;28;20422;-89
2022/12/19 06:26:57;;;;;;;25.83;14.30;;;;;;;;;;5078431;28;20054;-90
2022/12/19 06:29:23;;;;;;;28.38;15.45;;;;;;;;;;5078507;28;20547;-88
2022/12/19 06:31:53;;;;;;;25.25;13.13;;;;;;;;;;5114023;28;20057;-90
2022/12/19 06:34:19;;;;;;;21.75;13.18;;;;;;;;;;5095199;28;20047;-89
2022/12/19 06:36:51;;;;;;;18.33;11.30;;;;;;;;;;5094985;28;20083;-91
2022/12/19 06:39:17;;;;;;;24.13;13.20;;;;;;;;;;5095200;28;20496;-89
2022/12/19 06:44:27;;;;;;;23.08;13.02;;;;;;;;;;5112877;28;20043;-89
2022/12/19 06:46:53;;;;;;;23.13;12.98;;;;;;;;;;5078094;28;20047;-87
2022/12/19 06:49:20;;;;;;;17.80;11.38;;;;;;;;;;5094988;28;20157;-89
2022/12/19 06:51:46;;;;;;;16.95;10.27;;;;;;;;;;5078053;28;20047;-86
2022/12/19 06:54:13;;;;;;;20.13;11.90;;;;;;;;;;5078145;28;20135;-88
2022/12/19 06:56:40;;;;;;;19.15;12.40;;;;;;;;;;5111467;28;20039;-88
2022/12/19 06:59:06;;;;;;;21.00;12.18;;;;;;;;;;5094981;28;20036;-89
2022/12/19 07:01:44;;;;;;;12.63;8.45;;;;;;;;;;5095634;28;20047;-88
2022/12/19 07:04:12;;;;;;;18.58;9.68;;;;;;;;;;5094682;28;20035;-88
2022/12/19 07:06:40;;;;;;;19.48;10.85;;;;;;;;;;5094367;28;20051;-88
2022/12/19 07:09:06;;;;;;;16.48;11.23;;;;;;;;;;5077444;28;20040;-87
2022/12/19 07:11:32;;;;;;;18.58;11.23;;;;;;;;;;5094620;28;20040;-87
2022/12/19 07:13:58;;;;;;;15.50;10.88;;;;;;;;;;5094598;28;20043;-88
2022/12/19 07:16:25;;;;;;;14.60;10.23;;;;;;;;;;5077836;28;20108;-89
2022/12/19 07:18:51;;;;;;;17.40;10.77;;;;;;;;;;5094668;28;20496;-90
2022/12/19 07:21:17;;;;;;;18.58;10.98;;;;;;;;;;5077809;28;20053;-89
2022/12/19 07:23:43;;;;;;;15.25;9.07;;;;;;;;;;5077721;28;20044;-89
2022/12/19 07:26:09;;;;;;;14.57;9.93;;;;;;;;;;5094547;28;20044;-88
2022/12/19 07:28:36;;;;;;;18.15;11.18;;;;;;;;;;5094810;28;20538;-89
2022/12/19 07:31:02;;;;;;;17.52;10.82;;;;;;;;;;5094410;28;20423;-89
2022/12/19 07:33:29;;;;;;;14.32;8.80;;;;;;;;;;5096555;28;20051;-89
2022/12/19 07:35:55;;;;;;;15.45;9.98;;;;;;;;;;5099221;28;20040;-86
2022/12/19 07:38:22;;;;;;;16.63;10.43;;;;;;;;;;5082013;28;20044;-85
2022/12/19 07:40:48;;;;;;;15.02;8.50;;;;;;;;;;5082222;28;20526;-86
2022/12/19 07:43:14;;;;;;;12.65;9.02;;;;;;;;;;5099279;28;20044;-86
2022/12/19 07:45:40;;;;;;;13.13;9.38;;;;;;;;;;5116850;28;20039;-86
2022/12/19 07:48:07;;;;;;;14.95;10.00;;;;;;;;;;5116099;28;20047;-87
2022/12/19 07:50:40;;;;;;;14.48;8.73;;;;;;;;;;5116990;28;20070;-87
2022/12/19 07:53:06;;;;;;;12.05;8.18;;;;;;;;;;5100178;28;20053;-86
2022/12/19 07:55:32;;;;;;;13.45;9.18;;;;;;;;;;5115262;28;20066;-87
2022/12/19 07:57:59;;;;;;;14.75;10.13;;;;;;;;;;5097923;28;20089;-87
2022/12/19 08:00:25;;;;;;;13.32;8.60;;;;;;;;;;5115415;28;20043;-87
2022/12/19 08:02:51;;;;;;;11.50;8.85;;;;;;;;;;5081031;28;20089;-87
2022/12/19 08:05:17;;;;;;;12.93;9.02;;;;;;;;;;5098268;28;20036;-88
2022/12/19 08:07:43;;;;;;;12.52;8.35;;;;;;;;;;5114808;28;20522;-87
2022/12/19 08:10:11;;;;;;;15.70;9.55;;;;;;;;;;5097857;28;20044;-88
2022/12/19 08:12:37;;;;;;;14.30;10.25;;;;;;;;;;5114748;28;20056;-87
2022/12/19 08:15:04;;;;;;;14.15;8.95;;;;;;;;;;5097513;28;20518;-87
2022/12/19 08:17:30;;;;;;;11.30;8.40;;;;;;;;;;5114415;28;20039;-88
2022/12/19 08:19:56;;;;;;;11.48;8.32;;;;;;;;;;5080686;28;20075;-87
2022/12/19 08:22:22;;;;;;;8.18;5.75;;;;;;;;;;5097806;28;20071;-87
2022/12/19 08:24:49;;;;;;;10.55;8.07;;;;;;;;;;5080633;28;20408;-88
2022/12/19 08:27:16;;;;;;;12.07;8.40;;;;;;;;;;5114679;28;20407;-89
2022/12/19 08:29:42;;;;;;;9.85;8.00;;;;;;;;;;5114358;28;20088;-88
2022/12/19 08:32:08;;;;;;;9.65;7.32;;;;;;;;;;5097092;28;20047;-89
2022/12/19 08:34:34;;;;;;;10.73;7.40;;;;;;;;;;5097228;28;20039;-87
2022/12/19 08:37:00;;;;;;;12.00;8.13;;;;;;;;;;5114483;28;20096;-88
2022/12/19 08:39:27;;;;;;;11.10;7.72;;;;;;;;;;5097515;28;20047;-88
2022/12/19 08:41:53;;;;;;;11.68;7.70;;;;;;;;;;5080489;28;20051;-88
2022/12/19 08:44:19;;;;;;;9.27;7.65;;;;;;;;;;5096919;28;20400;-88
2022/12/19 08:46:45;;;;;;;10.65;7.85;;;;;;;;;;5114109;28;20484;-88
2022/12/19 08:49:11;;;;;;;12.25;9.75;;;;;;;;;;5080099;28;20043;-88
2022/12/19 08:51:37;;;;;;;10.45;8.10;;;;;;;;;;5097545;28;20050;-88
2022/12/19 08:54:04;;;;;;;12.85;8.45;;;;;;;;;;5097054;28;20039;-88
2022/12/19 08:56:30;;;;;;;14.95;8.50;;;;;;;;;;5080518;28;20039;-89
2022/12/19 08:58:56;;;;;;;13.77;8.80;;;;;;;;;;5097314;28;20043;-89
2022/12/19 09:01:22;;;;;;;9.90;7.93;;;;;;;;;;5097054;28;20407;-89
2022/12/19 09:03:49;;;;;;;12.93;8.75;;;;;;;;;;5113716;28;20047;-89
2022/12/19 09:06:18;;;;;;;13.90;9.82;;;;;;;;;;5097045;28;20040;-89
2022/12/19 09:08:44;;;;;;;13.95;9.90;;;;;;;;;;5096758;28;20043;-90
2022/12/19 09:11:11;;;;;;;12.68;9.77;;;;;;;;;;5114017;28;20438;-89
2022/12/19 09:13:38;;;;;;;10.50;7.75;;;;;;;;;;5097101;28;20036;-90
2022/12/19 09:16:05;;;;;;;10.95;8.35;;;;;;;;;;5097063;28;20036;-90
2022/12/19 09:18:32;;;;;;;14.05;8.77;;;;;;;;;;5097896;28;20094;-90
2022/12/19 09:20:59;;;;;;;13.13;9.00;;;;;;;;;;5114678;28;20090;-90
2022/12/19 09:23:26;;;;;;;13.18;9.52;;;;;;;;;;5097929;28;20502;-89
2022/12/19 09:25:52;;;;;;;13.13;9.98;;;;;;;;;;5098125;28;20044;-89
2022/12/19 09:28:18;;;;;;;13.02;10.30;;;;;;;;;;5114377;28;20039;-90
2022/12/19 09:30:45;;;;;;;13.95;10.52;;;;;;;;;;5096683;28;20055;-89
2022/12/19 09:33:11;;;;;;;13.68;8.48;;;;;;;;;;5097643;28;20075;-91
2022/12/19 09:35:37;;;;;;;10.93;9.18;;;;;;;;;;5097518;28;20042;-89
2022/12/19 09:38:06;;;;;;;15.23;10.98;;;;;;;;;;5097229;28;20422;-90
2022/12/19 09:40:46;;;;;;;12.13;9.55;;;;;;;;;;5080702;28;20083;-93
2022/12/19 09:43:29;;;;;;;17.23;10.25;;;;;;;;;;5097460;28;20090;-92
2022/12/19 09:46:26;;;;;;;16.98;12.18;;;6.00;99.90;;;;;;5115375;28;20055;-93
2022/12/19 09:48:56;;;;;;;9.70;7.78;;;;;;;;;;5099213;28;20054;-94
2022/12/19 09:51:25;;;;;;;13.60;10.75;;;;;;;;;;5082569;28;20062;-92
2022/12/19 09:54:00;;;;;;;15.15;10.70;;;;;;;;;;5098863;28;20051;-89
2022/12/19 09:56:29;;;;;;;13.32;10.13;;;;;;;;;;5097624;28;20040;-93
2022/12/19 09:59:01;;;;;;;19.02;11.35;;;;;;;;;;5098357;28;20044;-90
2022/12/19 10:01:39;;;;;;;17.75;11.93;;;;;;;;;;5099064;28;20051;-90
2022/12/19 10:04:16;;;;;;;14.77;10.55;;;;;;;;;;5114906;28;20487;-92
2022/12/19 10:06:45;;;;;;;16.13;10.80;;;;;;;;;;5099222;28;20387;-90
2022/12/19 10:09:13;;;;;;;13.85;10.35;;;;;;;;;;5117849;28;20047;-88
2022/12/19 10:11:46;;;;;;;10.40;8.43;;;;;;;;;;5117269;28;20051;-89
2022/12/19 10:14:25;;;;;;;10.88;8.13;;;;;;;;;;5102164;28;20075;-90
2022/12/19 10:16:59;;;;;;;14.00;11.18;;;;;;;;;;5102807;28;20415;-90
2022/12/19 10:19:37;;;;;;;;;;;6.60;99.90;;;;;;5120388;28;20036;-89
2022/12/19 10:22:07;;;;;;;13.85;10.30;;;;;;;;;;5099121;28;19920;-91
2022/12/19 10:24:37;;;;;;;12.73;9.10;;;;;;;;;;5099566;28;20442;-90
2022/12/19 10:27:17;;;;;;;13.00;9.32;;;;;;;;;;5099989;28;20043;-89
2022/12/19 10:30:16;;;;;;;18.30;12.55;;;6.70;99.90;;;;;;5118371;28;20047;-89
2022/12/19 10:32:42;;;;;;;12.95;9.95;;;;;;;;;;5118335;28;20087;-89
2022/12/19 10:35:19;;;;;;;16.55;9.77;;;;;;;;;;5120443;28;20050;-88
2022/12/19 10:37:51;;;;;;;15.63;10.23;;;;;;;;;;5103220;28;20046;-88
2022/12/19 10:40:25;;;;;;;15.88;11.77;;;;;;;;;;5105079;28;20056;-88
2022/12/19 10:43:19;;;;;;;14.18;12.05;;;;;;;;;;5121913;28;20607;-89
2022/12/19 10:45:48;;;;;;;14.70;9.98;;;;;;;;;;5119696;28;20503;-88
2022/12/19 10:48:36;;;;;;;11.85;9.68;;;;;;;;;;5119370;28;20051;-88
2022/12/19 10:51:13;;;;;;;13.63;10.45;;;;;;;;;;5118402;28;20122;-88
2022/12/19 10:53:55;;;;;;;15.73;10.60;;;;;;;;;;5084354;28;20449;-87
2022/12/19 10:56:30;;;;;;;18.25;10.43;;;;;;;;;;5117463;28;20129;-88
2022/12/19 10:59:00;;;;;;;14.10;9.90;;;;;;;;;;5118520;28;20040;-88
2022/12/19 11:01:29;;;;;;;13.73;9.68;;;;;;;;;;5118375;28;20168;-88
2022/12/19 11:04:16;;;;;;;16.50;10.35;;;;;;;;;;5101297;28;20077;-88
2022/12/19 11:06:47;;;;;;;13.23;9.45;;;;;;;;;;5101459;28;20047;-88
2022/12/19 11:09:31;;;;;;;13.55;9.27;;;;;;;;;;5100141;28;20047;-88
2022/12/19 11:12:14;;;;;;;12.75;8.65;;;;;;;;;;5118626;28;20048;-88
2022/12/19 11:14:52;;;;;;;10.88;8.20;;;;;;;;;;5100755;28;20400;-88
2022/12/19 11:17:49;;;;;;;13.30;8.10;;;;;;;;;;5116762;28;20496;-88
2022/12/19 11:20:21;;;;;;;12.40;9.32;;;;;;;;;;5110313;28;20136;-89
2022/12/19 11:22:56;;;;;;;16.08;9.55;;;;;;;;;;5099722;28;20047;-88
2022/12/19 11:25:30;;;;;;;7.75;6.25;;;;;;;;;;5100589;28;20435;-88
2022/12/19 11:27:56;;;;;;;11.40;8.40;;;;;;;;;;5117592;28;20396;-88
2022/12/19 11:30:24;;;;;;;12.90;8.80;;;;;;;;;;5116629;28;20065;-89
2022/12/19 11:33:07;;;;;;;15.07;9.10;;;;;;;;;;5099465;28;20121;-88
2022/12/19 11:35:44;;;;;;;9.13;7.80;;;;;;;;;;5099548;28;20082;-89
2022/12/19 11:38:12;;;;;;;10.45;7.63;;;;;;;;;;5100567;28;20050;-88
2022/12/19 11:40:56;;;;;;;9.70;7.13;;;;;;;;;;5098751;28;20143;-89
2022/12/19 11:43:41;;;;;;;13.25;8.02;;;;;;;;;;5098582;28;20047;-90
2022/12/19 11:46:13;;;;;;;10.70;7.63;;;;;;;;;;5097655;28;20079;-90
2022/12/19 11:48:55;;;;;;;13.55;7.70;;;;;;;;;;5116530;28;20050;-89
2022/12/19 11:51:21;;;;;;;11.38;8.20;;;;;;;;;;5116449;28;20057;-90
2022/12/19 11:53:48;;;;;;;12.90;8.10;;;;;;;;;;5097752;28;20126;-90
2022/12/19 11:56:16;;;;;;;11.02;7.95;;;;;;;;;;5098433;28;20369;-90
2022/12/19 11:58:44;;;;;;;13.82;7.85;;;;;;;;;;5114636;28;20130;-90
2022/12/19 12:01:22;;;;;;;14.85;9.38;;;;;;;;;;5098004;28;20042;-90
2022/12/19 12:04:05;;;;;;;13.82;8.73;;;;;;;;;;5097950;28;20055;-90
2022/12/19 12:06:43;;;;;;;10.20;7.72;;;;;;;;;;5115063;28;20384;-90
2022/12/19 12:09:17;;;;;;;9.88;6.45;;;;;;;;;;5113797;28;20565;-91
2022/12/19 12:11:46;;;;;;;10.48;7.88;;;;;;;;;;5098216;28;20138;-90
2022/12/19 12:14:24;;;;;;;12.82;8.23;;;;;;;;;;5098350;28;20110;-91
2022/12/19 12:17:03;;;;;;;13.35;7.10;;;;;;;;;;5097710;28;20200;-90
2022/12/19 12:19:48;;;;;;;14.13;7.97;;;;;;;;;;5098918;28;20039;-91
2022/12/19 12:22:20;;;;;;;7.90;7.13;;;;;;;;;;5101440;28;20048;-91
2022/12/19 12:24:46;;;;;;;12.07;8.70;;;;;;;;;;5101706;28;20047;-91
2022/12/19 12:27:27;;;;;;;11.15;7.25;;;;;;;;;;5101649;28;20448;-90
2022/12/19 12:30:16;;;;;;;7.85;7.05;;;;;;;;;;5101058;28;20151;-91
2022/12/19 12:33:02;;;;;;;10.82;7.70;;;;;;;;;;5101025;28;20063;-90
2022/12/19 12:35:28;;;;;;;10.00;7.80;;;;;;;;;;5101499;28;20043;-90
2022/12/19 12:38:01;;;;;;;9.73;8.25;;;;;;;;;;5101658;28;20055;-90
2022/12/19 12:40:30;;;;;;;10.50;7.10;;;;;;;;;;5101799;28;20043;-90
2022/12/19 12:43:08;;;;;;;9.43;7.63;;;;;;;;;;5101903;28;20052;-90
2022/12/19 12:45:39;;;;;;;12.32;7.25;;;;;;;;;;5104272;28;20040;-90
2022/12/19 12:48:24;;;;;;;8.63;6.40;;;;;;;;;;5104239;28;20047;-92
2022/12/19 12:50:51;;;;;;;8.25;6.85;;;;;;;;;;5103586;28;20421;-90
2022/12/19 12:53:18;;;;;;;12.35;7.53;;;;;;;;;;5102909;28;20039;-90
2022/12/19 12:55:45;;;;;;;10.98;7.35;;;;;;;;;;5084214;28;20039;-90
2022/12/19 12:58:45;;;;;;;9.38;7.38;;;8.40;99.90;;;;;;5100974;28;20124;-90
2022/12/19 13:01:17;;;;;;;10.48;7.35;;;;;;;;;;5100766;28;20522;-90
2022/12/19 13:03:54;;;;;;;12.57;7.80;;;;;;;;;;5101309;28;20040;-89
2022/12/19 13:06:31;;;;;;;11.48;7.60;;;;;;;;;;5100821;28;20043;-90
2022/12/19 13:09:19;;;;;;;8.48;7.53;;;;;;;;;;5117497;28;20052;-90
2022/12/19 13:14:53;;;;;;;8.95;7.45;;;;;;;;;;5118758;28;20058;-89
2022/12/19 13:17:31;;;;;;;12.30;8.02;;;;;;;;;;5100354;28;20039;-90
2022/12/19 13:20:04;;;;;;;10.30;6.95;;;;;;;;;;5100478;28;20075;-90
2022/12/19 13:22:31;;;;;;;6.53;5.63;;;;;;;;;;5101271;28;20487;-90
2022/12/19 13:24:58;;;;;;;8.73;7.47;;;;;;;;;;5102150;28;20043;-90
2022/12/19 13:27:42;;;;;;;9.68;7.45;;;;;;;;;;5100524;28;20086;-90
2022/12/19 13:30:15;;;;;;;10.98;6.43;;;;;;;;;;5099940;28;20056;-89
2022/12/19 13:32:41;;;;;;;7.30;5.70;;;;;;;;;;5116696;28;20130;-90
2022/12/19 13:35:10;;;;;;;8.82;7.30;;;;;;;;;;5099698;28;20055;-88
2022/12/19 13:37:48;;;;;;;11.73;7.72;;;;;;;;;;5100088;28;20047;-89
2022/12/19 13:40:20;;;;;;;11.27;6.80;;;;;;;;;;5118138;27;20079;-89
2022/12/19 13:45:58;;;;;;;8.82;7.25;;;;;;;;;;5117602;28;20047;-90
2022/12/19 13:48:28;;;;;;;9.10;7.22;;;;;;;;;;5099723;28;20075;-87
2022/12/19 13:50:55;;;;;;;7.57;6.63;;;;;;;;;;5099087;28;20040;-88
2022/12/19 13:53:23;;;;;;;8.88;7.47;;;;;;;;;;5098452;28;20135;-87
2022/12/19 13:55:55;;;;;;;7.32;6.07;;;;;;;;;;5098940;28;20516;-90
2022/12/19 13:58:24;;;;;;;9.57;6.30;;;;;;;;;;5099399;28;20043;-89
2022/12/19 14:00:51;;;;;;;8.20;7.35;;;;;;;;;;5098908;28;20180;-89
2022/12/19 14:03:20;;;;;;;7.93;6.80;;;;;;;;;;5081415;28;20220;-90
2022/12/19 14:05:46;;;;;;;8.73;5.93;;;;;;;;;;5098271;28;20039;-89
2022/12/19 14:08:19;;;;;;;7.07;6.40;;;;;;;;;;5098394;28;20047;-90
2022/12/19 14:10:48;;;;;;;9.82;6.97;;;;;;;;;;5098429;28;20083;-89
2022/12/19 14:16:05;;;;;;;10.75;8.27;;;;;;;;;;5115384;28;20503;-89
2022/12/19 14:18:33;;;;;;;8.40;7.55;;;;;;;;;;5115883;28;20048;-89
2022/12/19 14:21:12;;;;;;;11.70;8.10;;;;;;;;;;5099151;28;20048;-90
2022/12/19 14:23:38;;;;;;;12.68;8.38;;;;;;;;;;5115950;28;20532;-88
2022/12/19 14:26:08;;;;;;;11.73;9.15;;;;;;;;;;5115621;28;20526;-90
2022/12/19 14:28:43;;;;;;;14.13;8.15;;;;;;;;;;5098662;28;20108;-89
2022/12/19 14:31:14;;;;;;;10.70;8.10;;;;;;;;;;5099186;28;20063;-90
2022/12/19 14:33:48;;;;;;;12.23;8.80;;;;;;;;;;5097169;28;20126;-90
2022/12/19 14:36:19;;;;;;;13.60;8.15;;;;;;;;;;5096010;28;20101;-91
2022/12/19 14:38:46;;;;;;;11.05;7.50;;;;;;;;;;5095835;28;20051;-90
2022/12/19 14:43:37;;;;;;;9.38;7.43;;;;;;;;;;5095574;28;20078;-90
2022/12/19 14:44:06;;;;;;;12.13;8.52;;;;;;;;;;5112814;28;20084;-91
2022/12/19 14:46:33;;;;;;;8.85;7.28;;;;;;;;;;5095249;28;20464;-91
2022/12/19 14:49:02;;;;;;;9.68;6.63;;;;;;;;;;5095861;28;20048;-90
2022/12/19 14:51:33;;;;;;;13.73;7.82;;;;;;;;;;5095616;28;20479;-90